Au Sable Chasm, New York
Current Conditions -  °F | °C
As of 1:53 AM on Sunday 26 Oct 2014 (Local Time) from KPBG Reporting Station
Overcast Overcast  
Wind Chill: 46°   Ceiling: 6500
Heat Index: 48°   Visibility: 10mi
Dew Point: 44°   Wind: 5mph
Humidity: 86%   Direction: 290°WNW
Pressure: 29.43"   Gusts: NA
Location:  44.5125°N, 73.5235°W
Report Text: KPBG 260553Z AUTO 29004KT 10SM FEW041 BKN065 OVC100 09/07 A2943 RMK AO2 RAE21 SLP967 P0000 60001 T00890067 10106 20083 56007
Loading
Personal Weather Stations






























Interactive Weather Map New forecast layout! Learn more

10-Day Weather Forecast

Advertisements
Track Severe Weather on mobile